sensor_id;sensor_type;location;lat;lon;timestamp;pressure;altitude;pressure_sealevel;temperature;humidity
54920;BME280;63804;53.120;8.764;2023-02-02T00:00:37;101509.09;;;7.61;44.26
54920;BME280;63804;53.120;8.764;2023-02-02T00:03:03;101507.81;;;7.45;44.69
54920;BME280;63804;53.120;8.764;2023-02-02T00:05:28;101512.03;;;7.65;44.29
54920;BME280;63804;53.120;8.764;2023-02-02T00:07:54;101505.66;;;7.69;44.31
54920;BME280;63804;53.120;8.764;2023-02-02T00:10:20;101502.88;;;7.47;44.74
54920;BME280;63804;53.120;8.764;2023-02-02T00:12:46;101526.59;;;7.41;44.88
54920;BME280;63804;53.120;8.764;2023-02-02T00:15:12;101527.34;;;7.47;45.00
54920;BME280;63804;53.120;8.764;2023-02-02T00:17:37;101519.25;;;7.69;44.46
54920;BME280;63804;53.120;8.764;2023-02-02T00:20:03;101531.75;;;7.42;44.81
54920;BME280;63804;53.120;8.764;2023-02-02T00:22:29;101521.19;;;7.55;44.41
54920;BME280;63804;53.120;8.764;2023-02-02T00:24:55;101519.97;;;7.47;44.52
54920;BME280;63804;53.120;8.764;2023-02-02T00:27:20;101517.16;;;7.52;44.53
54920;BME280;63804;53.120;8.764;2023-02-02T00:29:46;101509.72;;;7.58;43.92
54920;BME280;63804;53.120;8.764;2023-02-02T00:32:12;101510.41;;;7.64;44.03
54920;BME280;63804;53.120;8.764;2023-02-02T00:34:38;101514.53;;;7.61;44.02
54920;BME280;63804;53.120;8.764;2023-02-02T00:37:03;101514.00;;;7.73;43.82
54920;BME280;63804;53.120;8.764;2023-02-02T00:39:29;101520.19;;;7.65;44.22
54920;BME280;63804;53.120;8.764;2023-02-02T00:41:55;101528.63;;;7.63;44.17
54920;BME280;63804;53.120;8.764;2023-02-02T00:44:21;101538.31;;;7.41;44.47
54920;BME280;63804;53.120;8.764;2023-02-02T00:47:06;101543.22;;;7.39;44.66
54920;BME280;63804;53.120;8.764;2023-02-02T00:49:31;101541.13;;;7.50;44.66
54920;BME280;63804;53.120;8.764;2023-02-02T00:51:57;101536.97;;;7.25;45.04
54920;BME280;63804;53.120;8.764;2023-02-02T00:54:25;101545.31;;;7.42;44.79
54920;BME280;63804;53.120;8.764;2023-02-02T00:56:51;101549.06;;;7.47;44.73
54920;BME280;63804;53.120;8.764;2023-02-02T00:59:16;101543.63;;;7.60;44.58
54920;BME280;63804;53.120;8.764;2023-02-02T01:01:42;101569.41;;;7.63;44.55
54920;BME280;63804;53.120;8.764;2023-02-02T01:04:08;101562.41;;;7.15;45.39
54920;BME280;63804;53.120;8.764;2023-02-02T01:06:34;101566.16;;;7.33;45.19
54920;BME280;63804;53.120;8.764;2023-02-02T01:09:00;101567.84;;;7.29;45.33
54920;BME280;63804;53.120;8.764;2023-02-02T01:11:27;101561.41;;;7.11;45.99
54920;BME280;63804;53.120;8.764;2023-02-02T01:13:52;101563.84;;;7.27;45.66
54920;BME280;63804;53.120;8.764;2023-02-02T01:16:18;101573.75;;;7.17;45.69
54920;BME280;63804;53.120;8.764;2023-02-02T01:18:47;101567.84;;;7.29;45.62
54920;BME280;63804;53.120;8.764;2023-02-02T01:21:13;101576.28;;;7.14;46.04
54920;BME280;63804;53.120;8.764;2023-02-02T01:23:39;101574.31;;;7.33;45.54
54920;BME280;63804;53.120;8.764;2023-02-02T01:26:08;101574.81;;;7.35;45.54
54920;BME280;63804;53.120;8.764;2023-02-02T01:28:34;101575.94;;;7.48;45.31
54920;BME280;63804;53.120;8.764;2023-02-02T01:31:15;101574.09;;;7.44;45.38
54920;BME280;63804;53.120;8.764;2023-02-02T01:33:42;101580.47;;;7.06;46.48
54920;BME280;63804;53.120;8.764;2023-02-02T01:36:13;101585.50;;;7.13;46.17
54920;BME280;63804;53.120;8.764;2023-02-02T01:38:40;101588.22;;;7.13;46.23
54920;BME280;63804;53.120;8.764;2023-02-02T01:41:07;101585.84;;;7.25;45.83
54920;BME280;63804;53.120;8.764;2023-02-02T01:46:16;101603.69;;;7.31;46.13
54920;BME280;63804;53.120;8.764;2023-02-02T01:49:26;101593.50;;;7.37;45.98
54920;BME280;63804;53.120;8.764;2023-02-02T01:51:54;101591.59;;;7.37;45.93
54920;BME280;63804;53.120;8.764;2023-02-02T01:54:24;101589.47;;;7.34;46.00
54920;BME280;63804;53.120;8.764;2023-02-02T01:56:55;101591.94;;;7.50;45.64
54920;BME280;63804;53.120;8.764;2023-02-02T01:59:22;101596.53;;;7.49;45.68
54920;BME280;63804;53.120;8.764;2023-02-02T02:01:50;101592.19;;;7.34;46.04
54920;BME280;63804;53.120;8.764;2023-02-02T02:04:17;101602.47;;;7.37;45.89
54920;BME280;63804;53.120;8.764;2023-02-02T02:06:44;101599.03;;;7.32;45.94
54920;BME280;63804;53.120;8.764;2023-02-02T02:09:10;101604.69;;;7.35;45.85
54920;BME280;63804;53.120;8.764;2023-02-02T02:11:36;101602.34;;;7.29;46.05
54920;BME280;63804;53.120;8.764;2023-02-02T02:14:04;101605.06;;;7.29;46.07
54920;BME280;63804;53.120;8.764;2023-02-02T02:17:17;101604.28;;;7.28;46.05
54920;BME280;63804;53.120;8.764;2023-02-02T02:32:25;101620.28;;;7.30;45.86
54920;BME280;63804;53.120;8.764;2023-02-02T02:37:53;101642.22;;;7.47;45.75
54920;BME280;63804;53.120;8.764;2023-02-02T02:43:31;101638.75;;;7.28;46.13
54920;BME280;63804;53.120;8.764;2023-02-02T02:46:00;101639.88;;;7.27;46.29
54920;BME280;63804;53.120;8.764;2023-02-02T02:48:28;101658.59;;;7.28;46.28
54920;BME280;63804;53.120;8.764;2023-02-02T02:51:04;101652.97;;;7.38;46.24
54920;BME280;63804;53.120;8.764;2023-02-02T02:53:30;101654.84;;;7.24;46.50
54920;BME280;63804;53.120;8.764;2023-02-02T02:56:19;101656.88;;;7.32;46.67
54920;BME280;63804;53.120;8.764;2023-02-02T03:01:53;101665.38;;;7.45;46.39
54920;BME280;63804;53.120;8.764;2023-02-02T03:07:29;101667.69;;;7.51;46.33
54920;BME280;63804;53.120;8.764;2023-02-02T03:09:59;101663.16;;;7.47;46.39
54920;BME280;63804;53.120;8.764;2023-02-02T03:12:25;101665.03;;;7.46;46.42
54920;BME280;63804;53.120;8.764;2023-02-02T03:14:51;101675.75;;;7.56;46.48
54920;BME280;63804;53.120;8.764;2023-02-02T03:17:17;101669.53;;;7.70;46.28
54920;BME280;63804;53.120;8.764;2023-02-02T03:19:43;101679.88;;;7.68;46.16
54920;BME280;63804;53.120;8.764;2023-02-02T03:22:09;101678.97;;;7.58;46.21
54920;BME280;63804;53.120;8.764;2023-02-02T03:24:34;101682.16;;;7.47;46.73
54920;BME280;63804;53.120;8.764;2023-02-02T03:27:00;101678.63;;;7.46;46.71
54920;BME280;63804;53.120;8.764;2023-02-02T03:29:27;101684.31;;;7.31;47.09
54920;BME280;63804;53.120;8.764;2023-02-02T03:31:53;101673.53;;;7.45;46.57
54920;BME280;63804;53.120;8.764;2023-02-02T03:34:19;101679.41;;;7.33;46.73
54920;BME280;63804;53.120;8.764;2023-02-02T03:36:44;101681.19;;;7.23;46.94
54920;BME280;63804;53.120;8.764;2023-02-02T03:39:10;101681.28;;;7.18;47.05
54920;BME280;63804;53.120;8.764;2023-02-02T03:41:36;101679.78;;;7.26;46.94
54920;BME280;63804;53.120;8.764;2023-02-02T03:44:02;101676.25;;;7.26;46.63
54920;BME280;63804;53.120;8.764;2023-02-02T03:46:27;101681.06;;;7.15;47.24
54920;BME280;63804;53.120;8.764;2023-02-02T03:48:53;101690.69;;;7.07;47.28
54920;BME280;63804;53.120;8.764;2023-02-02T03:51:19;101693.09;;;6.90;47.68
54920;BME280;63804;53.120;8.764;2023-02-02T03:53:45;101704.34;;;7.02;47.63
54920;BME280;63804;53.120;8.764;2023-02-02T03:56:14;101699.41;;;7.04;47.42
54920;BME280;63804;53.120;8.764;2023-02-02T03:58:40;101699.28;;;6.95;47.79
54920;BME280;63804;53.120;8.764;2023-02-02T04:01:09;101709.13;;;6.91;47.73
54920;BME280;63804;53.120;8.764;2023-02-02T04:03:35;101702.50;;;6.97;47.59
54920;BME280;63804;53.120;8.764;2023-02-02T04:06:01;101716.47;;;6.85;47.95
54920;BME280;63804;53.120;8.764;2023-02-02T04:08:28;101712.69;;;6.86;47.99
54920;BME280;63804;53.120;8.764;2023-02-02T04:10:53;101720.63;;;7.02;47.32
54920;BME280;63804;53.120;8.764;2023-02-02T04:13:19;101718.19;;;7.00;47.43
54920;BME280;63804;53.120;8.764;2023-02-02T04:15:45;101717.44;;;6.76;48.08
54920;BME280;63804;53.120;8.764;2023-02-02T04:18:11;101728.81;;;6.78;47.93
54920;BME280;63804;53.120;8.764;2023-02-02T04:20:37;101733.28;;;6.87;47.75
54920;BME280;63804;53.120;8.764;2023-02-02T04:23:02;101733.56;;;6.86;47.61
54920;BME280;63804;53.120;8.764;2023-02-02T04:25:28;101736.59;;;6.84;47.78
54920;BME280;63804;53.120;8.764;2023-02-02T04:27:54;101748.03;;;6.81;47.77
54920;BME280;63804;53.120;8.764;2023-02-02T04:30:20;101742.25;;;6.88;47.50
54920;BME280;63804;53.120;8.764;2023-02-02T04:32:46;101740.69;;;6.82;47.54
54920;BME280;63804;53.120;8.764;2023-02-02T04:35:11;101742.59;;;6.81;47.75
54920;BME280;63804;53.120;8.764;2023-02-02T04:37:37;101736.34;;;6.81;47.57
54920;BME280;63804;53.120;8.764;2023-02-02T04:40:04;101737.31;;;6.90;47.43
54920;BME280;63804;53.120;8.764;2023-02-02T04:42:30;101739.53;;;7.07;47.02
54920;BME280;63804;53.120;8.764;2023-02-02T04:44:57;101737.13;;;7.05;46.94
54920;BME280;63804;53.120;8.764;2023-02-02T04:47:23;101738.06;;;6.96;47.33
54920;BME280;63804;53.120;8.764;2023-02-02T04:49:49;101733.97;;;6.98;47.08
54920;BME280;63804;53.120;8.764;2023-02-02T04:52:15;101736.69;;;6.98;46.85
54920;BME280;63804;53.120;8.764;2023-02-02T04:54:40;101732.44;;;6.92;47.35
54920;BME280;63804;53.120;8.764;2023-02-02T04:57:06;101733.69;;;7.00;47.14
54920;BME280;63804;53.120;8.764;2023-02-02T04:59:32;101733.47;;;6.96;47.17
54920;BME280;63804;53.120;8.764;2023-02-02T05:01:59;101749.22;;;6.94;47.08
54920;BME280;63804;53.120;8.764;2023-02-02T05:04:25;101752.28;;;6.87;47.39
54920;BME280;63804;53.120;8.764;2023-02-02T05:06:52;101744.75;;;6.84;47.38
54920;BME280;63804;53.120;8.764;2023-02-02T05:09:18;101740.56;;;6.92;47.19
54920;BME280;63804;53.120;8.764;2023-02-02T05:11:44;101740.19;;;6.80;47.22
54920;BME280;63804;53.120;8.764;2023-02-02T05:14:10;101730.91;;;6.81;47.43
54920;BME280;63804;53.120;8.764;2023-02-02T05:16:36;101734.09;;;6.88;47.11
54920;BME280;63804;53.120;8.764;2023-02-02T05:19:02;101745.25;;;6.86;47.28
54920;BME280;63804;53.120;8.764;2023-02-02T05:21:27;101755.78;;;6.93;47.02
54920;BME280;63804;53.120;8.764;2023-02-02T05:23:53;101757.28;;;6.99;46.97
54920;BME280;63804;53.120;8.764;2023-02-02T05:26:25;101751.94;;;6.94;46.94
54920;BME280;63804;53.120;8.764;2023-02-02T05:28:51;101758.19;;;6.71;47.32
54920;BME280;63804;53.120;8.764;2023-02-02T05:31:18;101746.03;;;6.87;47.12
54920;BME280;63804;53.120;8.764;2023-02-02T05:33:44;101761.75;;;6.90;47.09
54920;BME280;63804;53.120;8.764;2023-02-02T05:36:10;101766.03;;;6.96;47.01
54920;BME280;63804;53.120;8.764;2023-02-02T05:38:36;101762.72;;;6.99;47.06
54920;BME280;63804;53.120;8.764;2023-02-02T05:41:02;101768.50;;;6.93;47.03
54920;BME280;63804;53.120;8.764;2023-02-02T05:43:29;101772.84;;;6.94;47.08
54920;BME280;63804;53.120;8.764;2023-02-02T05:45:56;101775.28;;;6.95;47.01
54920;BME280;63804;53.120;8.764;2023-02-02T05:48:21;101780.19;;;6.93;47.20
54920;BME280;63804;53.120;8.764;2023-02-02T05:50:56;101781.88;;;6.65;47.65
54920;BME280;63804;53.120;8.764;2023-02-02T05:53:24;101785.72;;;6.83;47.46
54920;BME280;63804;53.120;8.764;2023-02-02T05:55:50;101792.25;;;6.82;47.52
54920;BME280;63804;53.120;8.764;2023-02-02T05:58:16;101788.88;;;6.90;47.29
54920;BME280;63804;53.120;8.764;2023-02-02T06:00:41;101789.13;;;6.94;47.15
54920;BME280;63804;53.120;8.764;2023-02-02T06:03:07;101797.97;;;6.80;47.64
54920;BME280;63804;53.120;8.764;2023-02-02T06:05:33;101803.41;;;6.80;47.82
54920;BME280;63804;53.120;8.764;2023-02-02T06:07:59;101797.31;;;6.89;47.47
54920;BME280;63804;53.120;8.764;2023-02-02T06:10:24;101797.09;;;6.85;47.79
54920;BME280;63804;53.120;8.764;2023-02-02T06:12:50;101798.03;;;6.75;48.21
54920;BME280;63804;53.120;8.764;2023-02-02T06:15:16;101802.09;;;6.78;48.06
54920;BME280;63804;53.120;8.764;2023-02-02T06:17:42;101805.88;;;6.77;48.23
54920;BME280;63804;53.120;8.764;2023-02-02T06:20:08;101811.53;;;6.80;48.20
54920;BME280;63804;53.120;8.764;2023-02-02T06:22:34;101811.31;;;6.77;48.01
54920;BME280;63804;53.120;8.764;2023-02-02T06:25:00;101816.28;;;6.70;48.44
54920;BME280;63804;53.120;8.764;2023-02-02T06:27:28;101817.16;;;6.65;48.71
54920;BME280;63804;53.120;8.764;2023-02-02T06:29:54;101828.16;;;6.74;48.74
54920;BME280;63804;53.120;8.764;2023-02-02T06:32:20;101826.53;;;6.73;48.75
54920;BME280;63804;53.120;8.764;2023-02-02T06:34:46;101840.22;;;6.86;48.54
54920;BME280;63804;53.120;8.764;2023-02-02T06:37:11;101843.66;;;6.73;48.83
54920;BME280;63804;53.120;8.764;2023-02-02T06:39:37;101839.19;;;6.82;48.66
54920;BME280;63804;53.120;8.764;2023-02-02T06:42:03;101846.47;;;6.87;48.44
54920;BME280;63804;53.120;8.764;2023-02-02T06:44:29;101841.25;;;6.91;48.48
54920;BME280;63804;53.120;8.764;2023-02-02T06:46:55;101850.94;;;6.78;48.89
54920;BME280;63804;53.120;8.764;2023-02-02T06:49:21;101852.97;;;6.86;48.75
54920;BME280;63804;53.120;8.764;2023-02-02T06:51:46;101852.47;;;6.84;48.75
54920;BME280;63804;53.120;8.764;2023-02-02T06:54:13;101860.53;;;6.89;48.88
54920;BME280;63804;53.120;8.764;2023-02-02T06:56:39;101857.84;;;6.65;49.36
54920;BME280;63804;53.120;8.764;2023-02-02T06:59:05;101855.38;;;6.68;49.47
54920;BME280;63804;53.120;8.764;2023-02-02T07:01:31;101862.34;;;6.75;49.28
54920;BME280;63804;53.120;8.764;2023-02-02T07:03:57;101855.25;;;6.79;49.18
54920;BME280;63804;53.120;8.764;2023-02-02T07:06:25;101853.81;;;6.86;49.08
54920;BME280;63804;53.120;8.764;2023-02-02T07:08:52;101860.59;;;6.84;48.99
54920;BME280;63804;53.120;8.764;2023-02-02T07:11:18;101864.66;;;6.86;49.19
54920;BME280;63804;53.120;8.764;2023-02-02T07:13:45;101861.72;;;6.83;49.24
54920;BME280;63804;53.120;8.764;2023-02-02T07:16:12;101867.09;;;6.88;49.11
54920;BME280;63804;53.120;8.764;2023-02-02T07:18:39;101866.22;;;6.93;49.49
54920;BME280;63804;53.120;8.764;2023-02-02T07:21:05;101869.75;;;6.93;49.11
54920;BME280;63804;53.120;8.764;2023-02-02T07:23:32;101876.22;;;6.97;49.03
54920;BME280;63804;53.120;8.764;2023-02-02T07:26:05;101883.84;;;6.95;49.31
54920;BME280;63804;53.120;8.764;2023-02-02T07:28:32;101883.63;;;6.92;49.30
54920;BME280;63804;53.120;8.764;2023-02-02T07:30:59;101882.81;;;6.91;49.54
54920;BME280;63804;53.120;8.764;2023-02-02T07:33:25;101888.91;;;6.78;49.62
54920;BME280;63804;53.120;8.764;2023-02-02T07:35:51;101892.59;;;6.87;49.42
54920;BME280;63804;53.120;8.764;2023-02-02T07:38:17;101901.81;;;6.91;49.70
54920;BME280;63804;53.120;8.764;2023-02-02T07:40:44;101907.78;;;6.93;49.72
54920;BME280;63804;53.120;8.764;2023-02-02T07:43:10;101906.13;;;6.92;49.64
54920;BME280;63804;53.120;8.764;2023-02-02T07:45:36;101906.84;;;7.03;49.53
54920;BME280;63804;53.120;8.764;2023-02-02T07:48:02;101910.06;;;7.05;49.45
54920;BME280;63804;53.120;8.764;2023-02-02T07:50:29;101908.22;;;7.00;49.47
54920;BME280;63804;53.120;8.764;2023-02-02T07:52:58;101911.91;;;7.10;49.43
54920;BME280;63804;53.120;8.764;2023-02-02T07:55:24;101918.72;;;7.07;49.30
54920;BME280;63804;53.120;8.764;2023-02-02T07:57:53;101923.28;;;7.12;49.38
54920;BME280;63804;53.120;8.764;2023-02-02T08:00:26;101932.53;;;7.11;49.52
54920;BME280;63804;53.120;8.764;2023-02-02T08:02:52;101933.69;;;7.04;49.38
54920;BME280;63804;53.120;8.764;2023-02-02T08:05:18;101934.44;;;7.10;49.48
54920;BME280;63804;53.120;8.764;2023-02-02T08:07:44;101934.84;;;6.98;49.74
54920;BME280;63804;53.120;8.764;2023-02-02T08:10:10;101942.94;;;7.03;49.82
54920;BME280;63804;53.120;8.764;2023-02-02T08:12:42;101939.13;;;7.04;49.72
54920;BME280;63804;53.120;8.764;2023-02-02T08:15:09;101948.31;;;7.09;49.60
54920;BME280;63804;53.120;8.764;2023-02-02T08:17:35;101953.16;;;7.12;49.71
54920;BME280;63804;53.120;8.764;2023-02-02T08:20:02;101949.94;;;7.10;49.73
54920;BME280;63804;53.120;8.764;2023-02-02T08:22:28;101963.03;;;7.02;49.80
54920;BME280;63804;53.120;8.764;2023-02-02T08:24:53;101966.66;;;7.17;49.51
54920;BME280;63804;53.120;8.764;2023-02-02T08:27:19;101963.84;;;7.27;49.12
54920;BME280;63804;53.120;8.764;2023-02-02T08:29:45;101970.97;;;7.23;49.33
54920;BME280;63804;53.120;8.764;2023-02-02T08:32:11;101981.22;;;7.26;48.99
54920;BME280;63804;53.120;8.764;2023-02-02T08:34:37;101978.47;;;7.31;49.17
54920;BME280;63804;53.120;8.764;2023-02-02T08:37:03;101985.16;;;7.39;49.02
54920;BME280;63804;53.120;8.764;2023-02-02T08:39:29;101985.94;;;7.39;48.79
54920;BME280;63804;53.120;8.764;2023-02-02T08:41:55;101996.81;;;7.39;48.96
54920;BME280;63804;53.120;8.764;2023-02-02T08:44:21;101999.00;;;7.37;48.87
54920;BME280;63804;53.120;8.764;2023-02-02T08:46:46;102003.28;;;7.44;48.72
54920;BME280;63804;53.120;8.764;2023-02-02T08:49:13;102004.66;;;7.41;48.69
54920;BME280;63804;53.120;8.764;2023-02-02T08:51:39;102008.84;;;7.33;49.01
54920;BME280;63804;53.120;8.764;2023-02-02T08:54:05;102015.78;;;7.45;48.63
54920;BME280;63804;53.120;8.764;2023-02-02T08:56:31;102015.66;;;7.55;48.45
54920;BME280;63804;53.120;8.764;2023-02-02T08:58:57;102016.69;;;7.59;48.50
54920;BME280;63804;53.120;8.764;2023-02-02T09:01:26;102025.00;;;7.68;48.11
54920;BME280;63804;53.120;8.764;2023-02-02T09:03:53;102028.59;;;7.63;48.60
54920;BME280;63804;53.120;8.764;2023-02-02T09:06:20;102024.47;;;7.66;48.29
54920;BME280;63804;53.120;8.764;2023-02-02T09:08:46;102035.56;;;7.69;48.57
54920;BME280;63804;53.120;8.764;2023-02-02T09:11:15;102023.84;;;7.74;48.41
54920;BME280;63804;53.120;8.764;2023-02-02T09:13:43;102031.91;;;7.60;48.65
54920;BME280;63804;53.120;8.764;2023-02-02T09:16:12;102034.94;;;7.77;48.42
54920;BME280;63804;53.120;8.764;2023-02-02T09:18:39;102034.41;;;7.75;48.74
54920;BME280;63804;53.120;8.764;2023-02-02T09:21:07;102042.22;;;7.82;48.56
54920;BME280;63804;53.120;8.764;2023-02-02T09:23:35;102039.13;;;7.70;48.80
54920;BME280;63804;53.120;8.764;2023-02-02T09:26:31;102048.44;;;7.83;48.77
54920;BME280;63804;53.120;8.764;2023-02-02T09:28:59;102059.53;;;7.86;48.42
54920;BME280;63804;53.120;8.764;2023-02-02T09:31:31;102058.75;;;7.86;48.25
54920;BME280;63804;53.120;8.764;2023-02-02T09:34:03;102059.19;;;7.93;48.45
54920;BME280;63804;53.120;8.764;2023-02-02T09:36:30;102067.53;;;8.02;48.16
54920;BME280;63804;53.120;8.764;2023-02-02T09:38:56;102064.03;;;7.96;48.35
54920;BME280;63804;53.120;8.764;2023-02-02T09:44:17;102069.19;;;7.97;48.46
54920;BME280;63804;53.120;8.764;2023-02-02T09:52:29;102080.00;;;8.03;48.18
54920;BME280;63804;53.120;8.764;2023-02-02T09:55:26;102080.22;;;8.06;48.39
54920;BME280;63804;53.120;8.764;2023-02-02T09:57:58;102082.44;;;8.04;48.15
54920;BME280;63804;53.120;8.764;2023-02-02T10:00:33;102092.00;;;8.02;48.04
54920;BME280;63804;53.120;8.764;2023-02-02T10:03:13;102099.38;;;7.96;48.23
54920;BME280;63804;53.120;8.764;2023-02-02T10:05:54;102109.53;;;8.09;48.04
54920;BME280;63804;53.120;8.764;2023-02-02T10:08:40;102101.00;;;7.97;48.39
54920;BME280;63804;53.120;8.764;2023-02-02T10:11:29;102103.16;;;8.00;48.31
54920;BME280;63804;53.120;8.764;2023-02-02T10:14:02;102099.22;;;8.11;48.17
54920;BME280;63804;53.120;8.764;2023-02-02T10:16:30;102101.97;;;8.06;48.24
54920;BME280;63804;53.120;8.764;2023-02-02T10:19:03;102105.50;;;8.07;48.30
54920;BME280;63804;53.120;8.764;2023-02-02T10:23:56;102123.00;;;8.20;47.90
54920;BME280;63804;53.120;8.764;2023-02-02T10:26:44;102113.75;;;8.21;47.92
54920;BME280;63804;53.120;8.764;2023-02-02T10:29:21;102110.38;;;8.29;47.86
54920;BME280;63804;53.120;8.764;2023-02-02T10:32:14;102110.63;;;8.32;47.73
54920;BME280;63804;53.120;8.764;2023-02-02T10:43:13;102131.63;;;8.27;47.82
54920;BME280;63804;53.120;8.764;2023-02-02T10:46:01;102136.75;;;8.33;47.93
54920;BME280;63804;53.120;8.764;2023-02-02T10:48:32;102138.75;;;8.23;47.94
54920;BME280;63804;53.120;8.764;2023-02-02T10:51:14;102145.59;;;8.20;48.27
54920;BME280;63804;53.120;8.764;2023-02-02T10:53:48;102156.91;;;8.27;47.97
54920;BME280;63804;53.120;8.764;2023-02-02T10:56:18;102149.47;;;8.38;47.64
54920;BME280;63804;53.120;8.764;2023-02-02T10:59:05;102147.19;;;8.45;47.72
54920;BME280;63804;53.120;8.764;2023-02-02T11:01:32;102145.19;;;8.51;47.26
54920;BME280;63804;53.120;8.764;2023-02-02T11:03:58;102150.63;;;8.51;47.64
54920;BME280;63804;53.120;8.764;2023-02-02T11:06:42;102152.63;;;8.45;47.72
54920;BME280;63804;53.120;8.764;2023-02-02T11:09:18;102161.09;;;8.44;47.66
54920;BME280;63804;53.120;8.764;2023-02-02T11:11:45;102163.88;;;8.39;47.90
54920;BME280;63804;53.120;8.764;2023-02-02T11:14:29;102172.31;;;8.37;47.75
54920;BME280;63804;53.120;8.764;2023-02-02T11:17:04;102171.16;;;8.43;47.66
54920;BME280;63804;53.120;8.764;2023-02-02T11:19:34;102168.25;;;8.34;47.84
54920;BME280;63804;53.120;8.764;2023-02-02T11:22:01;102166.31;;;8.40;47.84
54920;BME280;63804;53.120;8.764;2023-02-02T11:24:44;102170.03;;;8.44;47.71
54920;BME280;63804;53.120;8.764;2023-02-02T11:29:48;102168.97;;;8.45;47.87
54920;BME280;63804;53.120;8.764;2023-02-02T11:32:28;102168.31;;;8.53;47.55
54920;BME280;63804;53.120;8.764;2023-02-02T11:37:26;102165.34;;;8.69;47.27
54920;BME280;63804;53.120;8.764;2023-02-02T11:39:52;102174.59;;;8.68;47.25
54920;BME280;63804;53.120;8.764;2023-02-02T11:42:22;102172.47;;;8.84;47.09
54920;BME280;63804;53.120;8.764;2023-02-02T11:44:53;102175.41;;;8.87;46.99
54920;BME280;63804;53.120;8.764;2023-02-02T11:47:26;102180.28;;;8.90;46.84
54920;BME280;63804;53.120;8.764;2023-02-02T11:49:53;102185.72;;;8.90;47.04
54920;BME280;63804;53.120;8.764;2023-02-02T11:52:21;102175.41;;;8.87;46.87
54920;BME280;63804;53.120;8.764;2023-02-02T11:54:50;102175.66;;;8.72;47.25
54920;BME280;63804;53.120;8.764;2023-02-02T11:57:19;102176.25;;;8.69;47.21
54920;BME280;63804;53.120;8.764;2023-02-02T11:59:47;102182.78;;;8.68;47.01
54920;BME280;63804;53.120;8.764;2023-02-02T12:04:46;102184.84;;;8.76;46.91
54920;BME280;63804;53.120;8.764;2023-02-02T12:07:31;102183.38;;;8.84;46.83
54920;BME280;63804;53.120;8.764;2023-02-02T12:10:12;102183.66;;;8.82;46.80
54920;BME280;63804;53.120;8.764;2023-02-02T12:12:51;102180.66;;;8.84;46.92
54920;BME280;63804;53.120;8.764;2023-02-02T12:15:35;102174.47;;;8.78;46.93
54920;BME280;63804;53.120;8.764;2023-02-02T12:26:33;102173.13;;;8.95;46.65
54920;BME280;63804;53.120;8.764;2023-02-02T12:29:27;102168.22;;;8.97;46.85
54920;BME280;63804;53.120;8.764;2023-02-02T12:34:58;102171.56;;;9.07;46.56
54920;BME280;63804;53.120;8.764;2023-02-02T12:45:34;102159.91;;;9.35;46.20
54920;BME280;63804;53.120;8.764;2023-02-02T12:48:20;102165.38;;;9.35;46.12
54920;BME280;63804;53.120;8.764;2023-02-02T12:56:28;102158.22;;;9.25;46.06
54920;BME280;63804;53.120;8.764;2023-02-02T12:59:10;102160.22;;;9.33;46.20
54920;BME280;63804;53.120;8.764;2023-02-02T13:09:59;102152.88;;;9.34;45.26
54920;BME280;63804;53.120;8.764;2023-02-02T13:12:36;102159.72;;;9.31;45.35
54920;BME280;63804;53.120;8.764;2023-02-02T13:15:11;102152.78;;;9.39;44.85
54920;BME280;63804;53.120;8.764;2023-02-02T13:17:53;102156.66;;;9.52;44.80
54920;BME280;63804;53.120;8.764;2023-02-02T13:20:36;102151.44;;;9.69;44.36
54920;BME280;63804;53.120;8.764;2023-02-02T13:23:10;102155.47;;;9.72;44.74
54920;BME280;63804;53.120;8.764;2023-02-02T13:25:51;102164.97;;;9.74;45.01
54920;BME280;63804;53.120;8.764;2023-02-02T13:28:49;102156.09;;;9.69;45.02
54920;BME280;63804;53.120;8.764;2023-02-02T13:31:29;102157.88;;;9.59;44.99
54920;BME280;63804;53.120;8.764;2023-02-02T13:34:55;102154.94;;;9.70;44.61
54920;BME280;63804;53.120;8.764;2023-02-02T13:37:08;102166.69;;;9.70;45.14
54920;BME280;63804;53.120;8.764;2023-02-02T13:39:43;102162.94;;;9.66;45.56
54920;BME280;63804;53.120;8.764;2023-02-02T13:42:25;102164.34;;;9.63;45.64
54920;BME280;63804;53.120;8.764;2023-02-02T13:45:00;102167.56;;;9.52;45.98
54920;BME280;63804;53.120;8.764;2023-02-02T13:47:35;102162.59;;;9.54;45.84
54920;BME280;63804;53.120;8.764;2023-02-02T13:50:12;102171.56;;;9.54;45.68
54920;BME280;63804;53.120;8.764;2023-02-02T13:52:41;102170.88;;;9.49;45.56
54920;BME280;63804;53.120;8.764;2023-02-02T13:55:48;102175.03;;;9.60;45.46
54920;BME280;63804;53.120;8.764;2023-02-02T14:01:01;102175.25;;;9.63;45.46
54920;BME280;63804;53.120;8.764;2023-02-02T14:03:34;102183.94;;;9.66;45.30
54920;BME280;63804;53.120;8.764;2023-02-02T14:06:09;102185.34;;;9.63;45.25
54920;BME280;63804;53.120;8.764;2023-02-02T14:08:36;102181.72;;;9.68;45.30
54920;BME280;63804;53.120;8.764;2023-02-02T14:11:07;102187.97;;;9.68;45.30
54920;BME280;63804;53.120;8.764;2023-02-02T14:13:41;102176.56;;;9.66;45.32
54920;BME280;63804;53.120;8.764;2023-02-02T14:18:57;102185.13;;;9.59;45.61
54920;BME280;63804;53.120;8.764;2023-02-02T14:26:43;102173.06;;;9.46;45.01
54920;BME280;63804;53.120;8.764;2023-02-02T14:31:58;102174.41;;;9.49;45.27
54920;BME280;63804;53.120;8.764;2023-02-02T14:34:44;102170.72;;;9.59;44.93
54920;BME280;63804;53.120;8.764;2023-02-02T14:48:42;102208.00;;;9.44;45.48
54920;BME280;63804;53.120;8.764;2023-02-02T14:51:17;102206.09;;;9.45;45.06
54920;BME280;63804;53.120;8.764;2023-02-02T14:53:49;102209.41;;;9.42;44.98
54920;BME280;63804;53.120;8.764;2023-02-02T14:56:16;102214.88;;;9.42;44.98
54920;BME280;63804;53.120;8.764;2023-02-02T14:58:45;102212.13;;;9.42;45.12
54920;BME280;63804;53.120;8.764;2023-02-02T15:03:56;102214.78;;;9.47;45.16
54920;BME280;63804;53.120;8.764;2023-02-02T15:19:46;102229.38;;;9.37;45.57
54920;BME280;63804;53.120;8.764;2023-02-02T15:22:29;102232.91;;;9.38;45.53